WetterOnline ( https://www.wetteronline.ch )

Wetter aktuell Putbus

Aktuelles Wetter: Putbus/Rügen (41m)

6-stündlich | Neueste Meldungen
Ortszeit Temperatur Wetter
Di, 31.01. 1:00 2.9° C fast wolkenlos
Mo, 30.01. 19:00 4.7° C leicht bewölkt
Mo, 30.01. 13:00 4.9° C bedeckt
Mo, 30.01. 7:00 4.4° C Regen
Mo, 30.01. 1:00 2.7° C Regen
So, 29.01. 19:00 3.3° C bewölkt
So, 29.01. 13:00 4.3° C bedeckt
So, 29.01. 7:00 3.2° C bedeckt
Ortszeit Temperatur Wetter
Di, 31.01. 5:00 2.3° C leicht bewölkt
Di, 31.01. 4:50 2.3° C leicht bewölkt
Di, 31.01. 4:40 2.3° C wolkenlos
Di, 31.01. 4:30 2.3° C fast wolkenlos
Di, 31.01. 4:20 2.3° C fast wolkenlos
Di, 31.01. 4:10 2.3° C fast wolkenlos
Di, 31.01. 4:00 2.5° C fast wolkenlos
Di, 31.01. 3:30 2.5° C wolkenlos
Di, 31.01. 3:00 2.4° C wolkenlos
Di, 31.01. 2:30 2.5° C wolkenlos
Di, 31.01. 2:00 2.7° C fast wolkenlos
Ortszeit Relative Feuchte Sichtweite
Di, 31.01. 1:00 79% 28 km
Mo, 30.01. 19:00 75% 25 km
Mo, 30.01. 13:00 80% 40 km
Mo, 30.01. 7:00 94% 24 km
Mo, 30.01. 1:00 94% 5.0 km
So, 29.01. 19:00 92% 11 km
So, 29.01. 13:00 90% 45 km
So, 29.01. 7:00 97% 6 km
Ortszeit Relative Feuchte Sichtweite
Di, 31.01. 5:00 80% 30 km
Di, 31.01. 4:50 80% -
Di, 31.01. 4:40 80% -
Di, 31.01. 4:30 79% 30 km
Di, 31.01. 4:20 79% -
Di, 31.01. 4:10 80% -
Di, 31.01. 4:00 80% 30 km
Di, 31.01. 3:30 81% 30 km
Di, 31.01. 3:00 81% 30 km
Di, 31.01. 2:30 81% 29 km
Di, 31.01. 2:00 80% 30 km
Ortszeit Niederschlagsmenge Niederschlagsart
Di, 31.01. 1:00 0.0 l/m2 in 6 Std. -
Mo, 30.01. 19:00 0.1 l/m2 in 12 Std. Regen
Mo, 30.01. 13:00 0.1 l/m2 in 6 Std. Niederschlag
Mo, 30.01. 7:00 3 l/m2 in 12 Std. Regen
Mo, 30.01. 1:00 0.4 l/m2 in 6 Std. Regen
So, 29.01. 19:00 0.3 l/m2 in 12 Std. Regen
So, 29.01. 13:00 0.1 l/m2 in 6 Std. Regen
So, 29.01. 7:00 0.1 l/m2 in 12 Std. Sprühregen
Ortszeit Niederschlagsmenge Niederschlagsart
Di, 31.01. 5:00 0.0 l/m2 in 1 Std. -
Di, 31.01. 4:50 keine Meldung -
Di, 31.01. 4:40 keine Meldung -
Di, 31.01. 4:30 0.0 l/m2 in 30 Min -
Di, 31.01. 4:20 keine Meldung -
Di, 31.01. 4:10 keine Meldung -
Di, 31.01. 4:00 0.0 l/m2 in 1 Std. -
Di, 31.01. 3:30 0.0 l/m2 in 30 Min -
Di, 31.01. 3:00 0.0 l/m2 in 1 Std. -
Di, 31.01. 2:30 0.0 l/m2 in 30 Min -
Di, 31.01. 2:00 0.0 l/m2 in 1 Std. -
Ortszeit Stärke Spitze Richtung
km/h Bft. km/h Grad Sektor
Di, 31.01. 1:00 29 5 65 290° W
Mo, 30.01. 19:00 31 5 59 290° W
Mo, 30.01. 13:00 36 5 65 270° W
Mo, 30.01. 7:00 28 4 57 270° W
Mo, 30.01. 1:00 30 5 54 240° SW
So, 29.01. 19:00 25 4 50 240° SW
So, 29.01. 13:00 28 4 43 260° W
So, 29.01. 7:00 22 4 35 260° W
Ortszeit Stärke Spitze Richtung
km/h Bft. km/h Grad Sektor
Di, 31.01. 5:00 28 4 52 290° W
Di, 31.01. 4:50 28 4 - 290° W
Di, 31.01. 4:40 25 4 - 290° W
Di, 31.01. 4:30 26 4 52 290° W
Di, 31.01. 4:20 26 4 - 290° W
Di, 31.01. 4:10 26 4 - 290° W
Di, 31.01. 4:00 28 4 46 290° W
Di, 31.01. 3:30 30 5 46 290° W
Di, 31.01. 3:00 25 4 43 290° W
Di, 31.01. 2:30 24 4 44 290° W
Di, 31.01. 2:00 25 4 47 290° W
Ortszeit Untergrenze Bedeckung Gattung
total tief tief mittel hoch
Di, 31.01. 1:00 810 m 1/8 1/8 - - -
Mo, 30.01. 19:00 990 m 3/8 3/8 - - -
Mo, 30.01. 13:00 510 m 8/8 8/8 - - -
Mo, 30.01. 7:00 210 m 8/8 8/8 - - -
Mo, 30.01. 1:00 210 m 8/8 8/8 - - -
So, 29.01. 19:00 240 m 7/8 7/8 - - -
So, 29.01. 13:00 240 m 8/8 8/8 - - -
So, 29.01. 7:00 90 m 8/8 8/8 - - -
Ortszeit Bedeckungsgrad in Achtel und Wolkenuntergrenze
Di, 31.01. 5:00 2(5100m)
Di, 31.01. 4:50 2(5100m) 2(7200m)
Di, 31.01. 4:40 keine Wolken
Di, 31.01. 4:30 1(7800m)
Di, 31.01. 4:20 1(7800m)
Di, 31.01. 4:10 1
Di, 31.01. 4:00 1(720m)
Di, 31.01. 3:30 keine Wolken
Di, 31.01. 3:00 keine Wolken
Di, 31.01. 2:30 keine Wolken
Di, 31.01. 2:00 1(720m)
Ortszeit Luftdruck NN (hPa) Tendenz (hPa in 3 Std.)
Di, 31.01. 1:00 1009 + 3,1
Mo, 30.01. 19:00 1002 + 2,9
Mo, 30.01. 13:00 998 - 1,2
Mo, 30.01. 7:00 999 - 2,2
Mo, 30.01. 1:00 1005 - 4,9
So, 29.01. 19:00 1014 - 2,1
So, 29.01. 13:00 1018 - 1,7
So, 29.01. 7:00 1021 - 1,0
Ortszeit Luftdruck NN (hPa) Tendenz (hPa in 3 Std.)
Di, 31.01. 5:00 1012 + 1,6
Di, 31.01. 4:50 1012 keine Meldung
Di, 31.01. 4:40 1012 keine Meldung
Di, 31.01. 4:30 1011 + 1,7
Di, 31.01. 4:20 1011 keine Meldung
Di, 31.01. 4:10 1011 keine Meldung
Di, 31.01. 4:00 1011 + 2,0
Di, 31.01. 3:30 1011 + 1,8
Di, 31.01. 3:00 1011 + 2,0
Di, 31.01. 2:30 1010 + 2,3
Di, 31.01. 2:00 1010 + 2,7
Ortszeit Schneehöhe (cm)
Di, 31.01. 1:00 0
Mo, 30.01. 19:00 0
Mo, 30.01. 13:00 0
Mo, 30.01. 7:00 0
Mo, 30.01. 1:00 0
So, 29.01. 19:00 0
So, 29.01. 13:00 0
So, 29.01. 7:00 0
Ortszeit Schneehöhe (cm)
Di, 31.01. 5:00 0
Di, 31.01. 4:50 0
Di, 31.01. 4:40 0
Di, 31.01. 4:30 0
Di, 31.01. 4:20 0
Di, 31.01. 4:10 0
Di, 31.01. 4:00 0
Di, 31.01. 3:30 0
Di, 31.01. 3:00 0
Di, 31.01. 2:30 0
Di, 31.01. 2:00 0
Link zu dieser Seite / Seite empfehlen

Das Wetter in ...